createdAt,value
2023-05-14T00:00:19.196Z,987.14
2023-05-14T00:01:19.159Z,987.14
2023-05-14T00:02:19.198Z,987.13
2023-05-14T00:03:19.240Z,987.11
2023-05-14T00:04:19.141Z,987.10
2023-05-14T00:05:19.094Z,987.09
2023-05-14T00:06:19.106Z,987.08
2023-05-14T00:07:19.084Z,987.07
2023-05-14T00:08:19.085Z,987.07
2023-05-14T00:09:19.056Z,987.07
2023-05-14T00:10:19.075Z,987.07
2023-05-14T00:11:19.043Z,987.06
2023-05-14T00:12:19.033Z,987.06
2023-05-14T00:13:19.046Z,987.05
2023-05-14T00:14:19.055Z,987.05
2023-05-14T00:15:18.999Z,987.05
2023-05-14T00:16:19.033Z,987.04
2023-05-14T00:17:19.023Z,987.04
2023-05-14T00:18:18.975Z,987.02
2023-05-14T00:19:18.967Z,987.01
2023-05-14T00:20:18.948Z,986.99
2023-05-14T00:21:18.935Z,986.99
2023-05-14T00:22:18.943Z,986.99
2023-05-14T00:23:18.913Z,986.98
2023-05-14T00:24:18.929Z,986.98
2023-05-14T00:25:18.928Z,986.99
2023-05-14T00:26:18.896Z,986.99
2023-05-14T00:27:18.885Z,986.99
2023-05-14T00:28:18.875Z,987.00
2023-05-14T00:29:18.856Z,987.00
2023-05-14T00:30:18.882Z,987.00
2023-05-14T00:31:18.864Z,986.99
2023-05-14T00:32:18.820Z,986.99
2023-05-14T00:33:18.819Z,986.97
2023-05-14T00:34:18.816Z,986.96
2023-05-14T00:35:18.812Z,986.95
2023-05-14T00:36:18.777Z,986.94
2023-05-14T00:37:18.781Z,986.94
2023-05-14T00:38:18.784Z,986.94
2023-05-14T00:39:18.759Z,986.93
2023-05-14T00:40:18.768Z,986.93
2023-05-14T00:41:18.741Z,986.93
2023-05-14T00:42:18.734Z,986.93
2023-05-14T00:43:18.720Z,986.93
2023-05-14T00:44:18.726Z,986.92
2023-05-14T00:45:18.710Z,986.92
2023-05-14T00:46:18.725Z,986.92
2023-05-14T00:47:18.700Z,986.92
2023-05-14T00:48:18.658Z,986.91
2023-05-14T00:49:18.679Z,986.91
2023-05-14T00:50:18.697Z,986.91
2023-05-14T00:51:18.632Z,986.91
2023-05-14T00:52:18.632Z,986.91
2023-05-14T00:53:18.631Z,986.89
2023-05-14T00:54:18.589Z,986.89
2023-05-14T00:55:18.600Z,986.88
2023-05-14T00:56:18.620Z,986.87
2023-05-14T00:57:18.554Z,986.86
2023-05-14T00:58:18.554Z,986.85
2023-05-14T00:59:18.539Z,986.84
2023-05-14T01:00:18.538Z,986.84
2023-05-14T01:01:19.122Z,986.83
2023-05-14T01:02:18.533Z,986.82
2023-05-14T01:03:18.588Z,986.82
2023-05-14T01:04:18.513Z,986.83
2023-05-14T01:05:18.503Z,986.84
2023-05-14T01:06:18.493Z,986.84
2023-05-14T01:07:18.498Z,986.85
2023-05-14T01:08:18.471Z,986.85
2023-05-14T01:09:18.445Z,986.86
2023-05-14T01:10:18.437Z,986.86
2023-05-14T01:11:18.830Z,986.86
2023-05-14T01:12:18.413Z,986.86
2023-05-14T01:13:18.402Z,986.86
2023-05-14T01:14:18.403Z,986.86
2023-05-14T01:15:18.381Z,986.85
2023-05-14T01:16:18.412Z,986.85
2023-05-14T01:17:18.398Z,986.84
2023-05-14T01:18:18.353Z,986.83
2023-05-14T01:19:18.360Z,986.82
2023-05-14T01:20:18.339Z,986.81
2023-05-14T01:21:18.319Z,986.78
2023-05-14T01:22:18.313Z,986.76
2023-05-14T01:23:18.316Z,986.74
2023-05-14T01:24:18.299Z,986.73
2023-05-14T01:25:18.278Z,986.73
2023-05-14T01:26:18.269Z,986.74
2023-05-14T01:27:18.259Z,986.75
2023-05-14T01:28:18.264Z,986.74
2023-05-14T01:29:18.272Z,986.75
2023-05-14T01:30:18.248Z,986.75
2023-05-14T01:31:18.240Z,986.76
2023-05-14T01:32:18.316Z,986.76
2023-05-14T01:33:18.248Z,986.77
2023-05-14T01:34:18.208Z,986.78
2023-05-14T01:35:18.185Z,986.80
2023-05-14T01:36:18.186Z,986.81
2023-05-14T01:37:18.177Z,986.81
2023-05-14T01:38:18.154Z,986.82
2023-05-14T01:39:18.176Z,986.81
2023-05-14T01:40:18.122Z,986.80
2023-05-14T01:41:18.120Z,986.78
2023-05-14T01:42:18.106Z,986.78
2023-05-14T01:43:18.190Z,986.76
2023-05-14T01:44:18.084Z,986.74
2023-05-14T01:45:18.099Z,986.74
2023-05-14T01:46:18.168Z,986.72
2023-05-14T01:47:18.033Z,986.71
2023-05-14T01:48:18.042Z,986.71
2023-05-14T01:49:18.044Z,986.71
2023-05-14T01:50:18.067Z,986.70
2023-05-14T01:51:18.011Z,986.71
2023-05-14T01:52:18.012Z,986.70
2023-05-14T01:53:17.996Z,986.70
2023-05-14T01:54:17.992Z,986.69
2023-05-14T01:55:18.010Z,986.67
2023-05-14T01:56:17.997Z,986.65
2023-05-14T01:57:17.951Z,986.65
2023-05-14T01:58:17.929Z,986.63
2023-05-14T01:59:17.908Z,986.63
2023-05-14T02:00:17.912Z,986.62
2023-05-14T02:01:17.950Z,986.62
2023-05-14T02:02:17.890Z,986.62
2023-05-14T02:03:17.872Z,986.61
2023-05-14T02:04:17.894Z,986.62
2023-05-14T02:05:17.885Z,986.61
2023-05-14T02:06:17.869Z,986.62
2023-05-14T02:07:17.871Z,986.62
2023-05-14T02:08:17.843Z,986.61
2023-05-14T02:09:17.854Z,986.61
2023-05-14T02:10:17.839Z,986.60
2023-05-14T02:11:17.810Z,986.58
2023-05-14T02:12:17.826Z,986.58
2023-05-14T02:13:17.872Z,986.58
2023-05-14T02:14:17.762Z,986.58
2023-05-14T02:15:17.760Z,986.56
2023-05-14T02:16:17.782Z,986.56
2023-05-14T02:17:17.740Z,986.55
2023-05-14T02:18:17.756Z,986.53
2023-05-14T02:19:17.816Z,986.53
2023-05-14T02:20:17.710Z,986.52
2023-05-14T02:21:17.710Z,986.51
2023-05-14T02:22:17.714Z,986.51
2023-05-14T02:23:17.692Z,986.51
2023-05-14T02:24:17.704Z,986.51
2023-05-14T02:25:17.690Z,986.51
2023-05-14T02:26:17.660Z,986.52
2023-05-14T02:27:17.652Z,986.51
2023-05-14T02:28:17.631Z,986.50
2023-05-14T02:29:17.643Z,986.50
2023-05-14T02:30:17.610Z,986.50
2023-05-14T02:31:17.704Z,986.51
2023-05-14T02:32:17.632Z,986.52
2023-05-14T02:33:17.646Z,986.52
2023-05-14T02:34:17.587Z,986.53
2023-05-14T02:35:17.572Z,986.54
2023-05-14T02:36:17.581Z,986.54
2023-05-14T02:37:17.543Z,986.55
2023-05-14T02:38:17.516Z,986.55
2023-05-14T02:39:17.526Z,986.55
2023-05-14T02:40:17.515Z,986.55
2023-05-14T02:41:17.511Z,986.55
2023-05-14T02:42:17.499Z,986.55
2023-05-14T02:43:17.485Z,986.55
2023-05-14T02:44:17.496Z,986.56
2023-05-14T02:45:17.451Z,986.55
2023-05-14T02:46:17.515Z,986.56
2023-05-14T02:47:17.439Z,986.55
2023-05-14T02:48:17.458Z,986.54
2023-05-14T02:49:17.422Z,986.54
2023-05-14T02:50:17.443Z,986.55
2023-05-14T02:51:17.427Z,986.54
2023-05-14T02:52:17.398Z,986.54
2023-05-14T02:53:17.368Z,986.52
2023-05-14T02:54:17.347Z,986.52
2023-05-14T02:55:17.371Z,986.52
2023-05-14T02:56:17.340Z,986.52
2023-05-14T02:57:17.338Z,986.53
2023-05-14T02:58:17.347Z,986.54
2023-05-14T02:59:17.325Z,986.54
2023-05-14T03:00:17.353Z,986.54
2023-05-14T03:01:17.339Z,986.52
2023-05-14T03:02:17.361Z,986.50
2023-05-14T03:03:17.300Z,986.48
2023-05-14T03:04:17.248Z,986.48
2023-05-14T03:05:17.267Z,986.47
2023-05-14T03:06:17.240Z,986.46
2023-05-14T03:07:17.224Z,986.46
2023-05-14T03:08:17.230Z,986.45
2023-05-14T03:09:17.236Z,986.45
2023-05-14T03:10:17.238Z,986.45
2023-05-14T03:11:17.215Z,986.45
2023-05-14T03:12:17.193Z,986.45
2023-05-14T03:13:17.178Z,986.46
2023-05-14T03:14:17.164Z,986.46
2023-05-14T03:15:17.179Z,986.48
2023-05-14T03:16:17.199Z,986.48
2023-05-14T03:17:17.118Z,986.48
2023-05-14T03:18:17.117Z,986.48
2023-05-14T03:19:17.204Z,986.48
2023-05-14T03:20:17.124Z,986.48
2023-05-14T03:21:17.086Z,986.46
2023-05-14T03:22:17.081Z,986.46
2023-05-14T03:23:17.079Z,986.45
2023-05-14T03:24:17.073Z,986.43
2023-05-14T03:25:17.097Z,986.43
2023-05-14T03:26:17.064Z,986.42
2023-05-14T03:27:17.027Z,986.41
2023-05-14T03:28:17.023Z,986.41
2023-05-14T03:29:16.987Z,986.41
2023-05-14T03:30:16.985Z,986.41
2023-05-14T03:31:17.056Z,986.41
2023-05-14T03:32:16.975Z,986.41
2023-05-14T03:33:16.961Z,986.42
2023-05-14T03:34:16.968Z,986.41
2023-05-14T03:35:16.984Z,986.42
2023-05-14T03:36:16.957Z,986.41
2023-05-14T03:37:16.952Z,986.41
2023-05-14T03:38:16.929Z,986.40
2023-05-14T03:39:16.913Z,986.40
2023-05-14T03:40:16.920Z,986.40
2023-05-14T03:41:16.904Z,986.41
2023-05-14T03:42:16.861Z,986.42
2023-05-14T03:43:16.855Z,986.41
2023-05-14T03:44:16.861Z,986.42
2023-05-14T03:45:16.853Z,986.43
2023-05-14T03:46:16.872Z,986.43
2023-05-14T03:47:16.831Z,986.44
2023-05-14T03:48:16.912Z,986.45
2023-05-14T03:49:16.819Z,986.45
2023-05-14T03:50:16.842Z,986.46
2023-05-14T03:51:16.830Z,986.46
2023-05-14T03:52:16.780Z,986.46
2023-05-14T03:53:16.785Z,986.46
2023-05-14T03:54:16.786Z,986.47
2023-05-14T03:55:16.751Z,986.48
2023-05-14T03:56:16.756Z,986.49
2023-05-14T03:57:16.723Z,986.49
2023-05-14T03:58:16.719Z,986.49
2023-05-14T03:59:16.691Z,986.50
2023-05-14T04:00:16.691Z,986.52
2023-05-14T04:01:16.744Z,986.52
2023-05-14T04:02:16.728Z,986.52
2023-05-14T04:03:16.732Z,986.53
2023-05-14T04:04:16.668Z,986.53
2023-05-14T04:05:16.657Z,986.53
2023-05-14T04:06:16.656Z,986.52
2023-05-14T04:07:16.630Z,986.51
2023-05-14T04:08:16.602Z,986.52
2023-05-14T04:09:16.595Z,986.52
2023-05-14T04:10:16.574Z,986.51
2023-05-14T04:11:16.579Z,986.51
2023-05-14T04:12:16.573Z,986.51
2023-05-14T04:13:16.556Z,986.51
2023-05-14T04:14:16.554Z,986.52
2023-05-14T04:15:16.557Z,986.53
2023-05-14T04:16:16.592Z,986.53
2023-05-14T04:17:16.546Z,986.54
2023-05-14T04:18:16.512Z,986.55
2023-05-14T04:19:16.586Z,986.55
2023-05-14T04:20:16.493Z,986.55
2023-05-14T04:21:16.512Z,986.55
2023-05-14T04:22:16.470Z,986.55
2023-05-14T04:23:16.436Z,986.55
2023-05-14T04:24:16.440Z,986.55
2023-05-14T04:25:16.460Z,986.55
2023-05-14T04:26:16.422Z,986.54
2023-05-14T04:27:16.446Z,986.55
2023-05-14T04:28:16.412Z,986.56
2023-05-14T04:29:16.441Z,986.56
2023-05-14T04:30:16.396Z,986.56
2023-05-14T04:31:16.446Z,986.55
2023-05-14T04:32:16.406Z,986.54
2023-05-14T04:33:16.366Z,986.54
2023-05-14T04:34:16.344Z,986.52
2023-05-14T04:35:16.326Z,986.52
2023-05-14T04:36:16.305Z,986.52
2023-05-14T04:37:16.320Z,986.51
2023-05-14T04:38:16.324Z,986.51
2023-05-14T04:39:16.324Z,986.50
2023-05-14T04:40:16.299Z,986.49
2023-05-14T04:41:16.273Z,986.49
2023-05-14T04:42:16.307Z,986.48
2023-05-14T04:43:16.268Z,986.48
2023-05-14T04:44:16.240Z,986.48
2023-05-14T04:45:16.232Z,986.48
2023-05-14T04:46:16.229Z,986.47
2023-05-14T04:47:16.242Z,986.48
2023-05-14T04:48:16.185Z,986.47
2023-05-14T04:49:16.181Z,986.46
2023-05-14T04:50:16.167Z,986.46
2023-05-14T04:51:16.159Z,986.47
2023-05-14T04:52:16.132Z,986.49
2023-05-14T04:53:16.222Z,986.49
2023-05-14T04:54:16.156Z,986.50
2023-05-14T04:55:16.141Z,986.51
2023-05-14T04:56:16.145Z,986.52
2023-05-14T04:57:16.118Z,986.52
2023-05-14T04:58:16.101Z,986.53
2023-05-14T04:59:16.115Z,986.54
2023-05-14T05:00:16.095Z,986.53
2023-05-14T05:01:16.113Z,986.53
2023-05-14T05:02:16.038Z,986.52
2023-05-14T05:03:16.103Z,986.52
2023-05-14T05:04:16.201Z,986.52
2023-05-14T05:05:16.078Z,986.52
2023-05-14T05:06:16.020Z,986.51
2023-05-14T05:07:16.021Z,986.51
2023-05-14T05:08:16.014Z,986.51
2023-05-14T05:09:15.982Z,986.52
2023-05-14T05:10:16.002Z,986.51
2023-05-14T05:11:15.984Z,986.50
2023-05-14T05:12:15.942Z,986.49
2023-05-14T05:13:15.951Z,986.48
2023-05-14T05:14:15.933Z,986.47
2023-05-14T05:15:15.929Z,986.47
2023-05-14T05:16:16.008Z,986.46
2023-05-14T05:17:15.932Z,986.45
2023-05-14T05:18:15.920Z,986.46
2023-05-14T05:19:15.944Z,986.44
2023-05-14T05:20:15.919Z,986.45
2023-05-14T05:21:15.895Z,986.45
2023-05-14T05:22:15.864Z,986.44
2023-05-14T05:23:15.850Z,986.45
2023-05-14T05:24:15.836Z,986.46
2023-05-14T05:25:15.842Z,986.46
2023-05-14T05:26:15.842Z,986.47
2023-05-14T05:27:15.803Z,986.47
2023-05-14T05:28:15.794Z,986.47
2023-05-14T05:29:15.806Z,986.47
2023-05-14T05:30:15.796Z,986.46
2023-05-14T05:31:17.598Z,986.46
2023-05-14T05:32:15.791Z,986.47
2023-05-14T05:33:15.756Z,986.47
2023-05-14T05:34:15.753Z,986.48
2023-05-14T05:35:15.719Z,986.49
2023-05-14T05:36:15.736Z,986.50
2023-05-14T05:37:15.722Z,986.50
2023-05-14T05:38:15.678Z,986.49
2023-05-14T05:39:15.686Z,986.49
2023-05-14T05:40:15.652Z,986.47
2023-05-14T05:41:15.685Z,986.47
2023-05-14T05:42:15.657Z,986.46
2023-05-14T05:43:15.702Z,986.47
2023-05-14T05:44:15.659Z,986.47
2023-05-14T05:45:15.634Z,986.48
2023-05-14T05:46:15.674Z,986.49
2023-05-14T05:47:15.622Z,986.50
2023-05-14T05:48:15.616Z,986.50
2023-05-14T05:49:15.603Z,986.51
2023-05-14T05:50:15.563Z,986.52
2023-05-14T05:51:15.541Z,986.52
2023-05-14T05:52:15.555Z,986.52
2023-05-14T05:53:15.533Z,986.53
2023-05-14T05:54:15.525Z,986.52
2023-05-14T05:55:15.663Z,986.53
2023-05-14T05:56:15.496Z,986.53
2023-05-14T05:57:15.511Z,986.54
2023-05-14T05:58:15.499Z,986.53
2023-05-14T05:59:15.533Z,986.53
2023-05-14T06:00:15.485Z,986.52
2023-05-14T06:01:15.478Z,986.52
2023-05-14T06:02:15.492Z,986.52
2023-05-14T06:03:15.529Z,986.52
2023-05-14T06:04:15.432Z,986.53
2023-05-14T06:05:15.535Z,986.53
2023-05-14T06:06:15.392Z,986.52
2023-05-14T06:07:15.386Z,986.53
2023-05-14T06:08:15.386Z,986.54
2023-05-14T06:09:15.380Z,986.54
2023-05-14T06:10:15.365Z,986.54
2023-05-14T06:11:15.380Z,986.55
2023-05-14T06:12:15.348Z,986.55
2023-05-14T06:13:15.346Z,986.56
2023-05-14T06:14:15.333Z,986.56
2023-05-14T06:15:15.336Z,986.56
2023-05-14T06:16:15.382Z,986.55
2023-05-14T06:17:15.335Z,986.55
2023-05-14T06:18:15.307Z,986.54
2023-05-14T06:19:15.391Z,986.55
2023-05-14T06:20:15.285Z,986.54
2023-05-14T06:21:15.256Z,986.53
2023-05-14T06:22:15.237Z,986.54
2023-05-14T06:23:15.230Z,986.52
2023-05-14T06:24:15.212Z,986.52
2023-05-14T06:25:15.235Z,986.52
2023-05-14T06:26:15.197Z,986.52
2023-05-14T06:27:15.232Z,986.53
2023-05-14T06:28:15.167Z,986.52
2023-05-14T06:29:15.181Z,986.52
2023-05-14T06:30:15.198Z,986.51
2023-05-14T06:31:15.174Z,986.50
2023-05-14T06:32:15.196Z,986.48
2023-05-14T06:33:15.131Z,986.48
2023-05-14T06:34:15.151Z,986.47
2023-05-14T06:35:15.352Z,986.46
2023-05-14T06:36:15.101Z,986.45
2023-05-14T06:37:15.113Z,986.44
2023-05-14T06:38:15.074Z,986.43
2023-05-14T06:39:15.074Z,986.43
2023-05-14T06:40:15.070Z,986.43
2023-05-14T06:41:15.084Z,986.45
2023-05-14T06:42:15.033Z,986.44
2023-05-14T06:43:15.039Z,986.44
2023-05-14T06:44:15.014Z,986.46
2023-05-14T06:45:15.000Z,986.44
2023-05-14T06:46:14.976Z,986.44
2023-05-14T06:47:15.010Z,986.43
2023-05-14T06:48:15.053Z,986.41
2023-05-14T06:49:15.048Z,986.40
2023-05-14T06:50:14.964Z,986.39
2023-05-14T06:51:14.945Z,986.38
2023-05-14T06:52:14.961Z,986.38
2023-05-14T06:53:14.940Z,986.38
2023-05-14T06:54:14.923Z,986.37
2023-05-14T06:55:14.917Z,986.36
2023-05-14T06:56:14.916Z,986.37
2023-05-14T06:57:14.893Z,986.36
2023-05-14T06:58:14.914Z,986.36
2023-05-14T06:59:14.863Z,986.34
2023-05-14T07:00:14.867Z,986.32
2023-05-14T07:01:14.872Z,986.29
2023-05-14T07:02:14.812Z,986.29
2023-05-14T07:03:14.845Z,986.28
2023-05-14T07:04:14.869Z,986.26
2023-05-14T07:05:14.802Z,986.26
2023-05-14T07:06:14.796Z,986.26
2023-05-14T07:07:14.778Z,986.27
2023-05-14T07:08:14.780Z,986.27
2023-05-14T07:09:14.774Z,986.25
2023-05-14T07:10:14.759Z,986.27
2023-05-14T07:11:14.764Z,986.28
2023-05-14T07:12:14.731Z,986.27
2023-05-14T07:13:14.722Z,986.26
2023-05-14T07:14:14.697Z,986.26
2023-05-14T07:15:14.686Z,986.27
2023-05-14T07:16:14.683Z,986.27
2023-05-14T07:17:14.730Z,986.26
2023-05-14T07:18:14.752Z,986.25
2023-05-14T07:19:14.674Z,986.25
2023-05-14T07:20:14.647Z,986.23
2023-05-14T07:21:14.649Z,986.21
2023-05-14T07:22:14.640Z,986.20
2023-05-14T07:23:14.629Z,986.18
2023-05-14T07:24:14.839Z,986.16
2023-05-14T07:25:14.600Z,986.13
2023-05-14T07:26:14.578Z,986.11
2023-05-14T07:27:14.627Z,986.10
2023-05-14T07:28:14.560Z,986.09
2023-05-14T07:29:14.564Z,986.08
2023-05-14T07:30:14.558Z,986.07
2023-05-14T07:31:14.553Z,986.06
2023-05-14T07:32:15.749Z,986.06
2023-05-14T07:33:14.533Z,986.06
2023-05-14T07:34:14.511Z,986.05
2023-05-14T07:35:14.510Z,986.05
2023-05-14T07:36:14.528Z,986.02
2023-05-14T07:37:14.486Z,986.02
2023-05-14T07:38:14.458Z,986.01
2023-05-14T07:39:14.487Z,985.99
2023-05-14T07:40:14.453Z,985.97
2023-05-14T07:41:14.427Z,985.97
2023-05-14T07:42:22.059Z,985.95
2023-05-14T07:43:14.415Z,985.94
2023-05-14T07:44:14.411Z,985.95
2023-05-14T07:45:14.392Z,985.92
2023-05-14T07:46:14.382Z,985.92
2023-05-14T07:47:14.423Z,985.90
2023-05-14T07:48:14.450Z,985.90
2023-05-14T07:49:14.380Z,985.89
2023-05-14T07:50:14.353Z,985.89
2023-05-14T07:51:14.329Z,985.88
2023-05-14T07:52:14.301Z,985.89
2023-05-14T07:53:14.305Z,985.88
2023-05-14T07:54:14.304Z,985.86
2023-05-14T07:55:14.285Z,985.85
2023-05-14T07:56:14.285Z,985.83
2023-05-14T07:57:14.276Z,985.84
2023-05-14T07:58:14.278Z,985.81
2023-05-14T07:59:14.280Z,985.82
2023-05-14T08:00:14.262Z,985.85
2023-05-14T08:01:14.237Z,985.82
2023-05-14T08:02:14.273Z,985.84
2023-05-14T08:03:14.363Z,985.80
2023-05-14T08:04:14.272Z,985.79
2023-05-14T08:05:14.220Z,985.79
2023-05-14T08:06:14.181Z,985.82
2023-05-14T08:07:14.162Z,985.78
2023-05-14T08:08:14.159Z,985.80
2023-05-14T08:09:14.154Z,985.78
2023-05-14T08:10:14.124Z,985.76
2023-05-14T08:11:14.185Z,985.75
2023-05-14T08:12:14.117Z,985.75
2023-05-14T08:13:14.107Z,985.76
2023-05-14T08:14:14.094Z,985.75
2023-05-14T08:15:14.086Z,985.76
2023-05-14T08:16:14.103Z,985.74
2023-05-14T08:17:14.161Z,985.76
2023-05-14T08:18:14.065Z,985.75
2023-05-14T08:19:14.278Z,985.78
2023-05-14T08:20:14.062Z,985.77
2023-05-14T08:21:14.047Z,985.74
2023-05-14T08:22:14.009Z,985.77
2023-05-14T08:23:14.004Z,985.77
2023-05-14T08:24:13.978Z,985.76
2023-05-14T08:25:13.998Z,985.76
2023-05-14T08:26:14.012Z,985.75
2023-05-14T08:27:13.957Z,985.75
2023-05-14T08:28:13.939Z,985.70
2023-05-14T08:29:16.136Z,985.71
2023-05-14T08:30:13.954Z,985.72
2023-05-14T08:31:13.977Z,985.74
2023-05-14T08:32:22.796Z,985.78
2023-05-14T08:33:13.910Z,985.70
2023-05-14T08:34:13.899Z,985.75
2023-05-14T08:35:13.893Z,985.72
2023-05-14T08:36:13.914Z,985.69
2023-05-14T08:37:13.840Z,985.66
2023-05-14T08:38:13.847Z,985.63
2023-05-14T08:39:13.837Z,985.64
2023-05-14T08:40:13.832Z,985.62
2023-05-14T08:41:13.844Z,985.63
2023-05-14T08:42:13.872Z,985.61
2023-05-14T08:43:13.785Z,985.60
2023-05-14T08:44:13.786Z,985.63
2023-05-14T08:45:13.794Z,985.61
2023-05-14T08:46:13.811Z,985.59
2023-05-14T08:47:13.759Z,985.58
2023-05-14T08:48:13.869Z,985.56
2023-05-14T08:49:13.755Z,985.57
2023-05-14T08:50:13.722Z,985.59
2023-05-14T08:51:13.699Z,985.57
2023-05-14T08:52:13.727Z,985.58
2023-05-14T08:53:13.714Z,985.57
2023-05-14T08:54:13.697Z,985.58
2023-05-14T08:55:13.700Z,985.60
2023-05-14T08:56:13.667Z,985.56
2023-05-14T08:57:13.661Z,985.59
2023-05-14T08:58:13.671Z,985.57
2023-05-14T08:59:13.644Z,985.57
2023-05-14T09:00:13.641Z,985.58
2023-05-14T09:01:13.599Z,985.57
2023-05-14T09:02:13.700Z,985.56
2023-05-14T09:03:13.630Z,985.55
2023-05-14T09:04:13.610Z,985.54
2023-05-14T09:05:13.552Z,985.55
2023-05-14T09:06:13.562Z,985.52
2023-05-14T09:07:13.527Z,985.54
2023-05-14T09:08:13.522Z,985.55
2023-05-14T09:09:13.526Z,985.53
2023-05-14T09:10:13.567Z,985.51
2023-05-14T09:11:13.513Z,985.50
2023-05-14T09:12:13.521Z,985.52
2023-05-14T09:13:13.485Z,985.53
2023-05-14T09:14:13.491Z,985.54
2023-05-14T09:15:13.486Z,985.54
2023-05-14T09:16:13.509Z,985.54
2023-05-14T09:17:13.442Z,985.54
2023-05-14T09:18:13.512Z,985.53
2023-05-14T09:19:13.590Z,985.52
2023-05-14T09:20:13.473Z,985.54
2023-05-14T09:21:13.407Z,985.56
2023-05-14T09:22:13.399Z,985.55
2023-05-14T09:23:13.387Z,985.53
2023-05-14T09:24:13.385Z,985.54
2023-05-14T09:25:13.378Z,985.55
2023-05-14T09:26:13.356Z,985.57
2023-05-14T09:27:13.329Z,985.58
2023-05-14T09:28:13.353Z,985.53
2023-05-14T09:29:13.303Z,985.58
2023-05-14T09:30:13.517Z,985.56
2023-05-14T09:31:13.316Z,985.59
2023-05-14T09:32:13.290Z,985.57
2023-05-14T09:33:13.290Z,985.59
2023-05-14T09:34:13.274Z,985.61
2023-05-14T09:35:13.256Z,985.61
2023-05-14T09:36:13.283Z,985.62
2023-05-14T09:37:13.253Z,985.62
2023-05-14T09:38:13.328Z,985.64
2023-05-14T09:39:13.245Z,985.63
2023-05-14T09:40:13.229Z,985.61
2023-05-14T09:41:13.200Z,985.59
2023-05-14T09:42:13.193Z,985.61
2023-05-14T09:43:13.165Z,985.65
2023-05-14T09:44:13.181Z,985.59
2023-05-14T09:45:13.201Z,985.60
2023-05-14T09:46:13.170Z,985.59
2023-05-14T09:47:13.175Z,985.61
2023-05-14T09:48:13.259Z,985.62
2023-05-14T09:49:13.145Z,985.60
2023-05-14T09:50:13.156Z,985.63
2023-05-14T09:51:13.127Z,985.60
2023-05-14T09:52:13.089Z,985.60
2023-05-14T09:53:13.068Z,985.60
2023-05-14T09:54:13.058Z,985.59
2023-05-14T09:55:13.062Z,985.60
2023-05-14T09:56:13.055Z,985.60
2023-05-14T09:57:13.041Z,985.59
2023-05-14T09:58:13.037Z,985.59
2023-05-14T09:59:13.033Z,985.58
2023-05-14T10:00:13.062Z,985.57
2023-05-14T10:01:13.028Z,985.56
2023-05-14T10:02:12.992Z,985.55
2023-05-14T10:03:13.073Z,985.57
2023-05-14T10:04:13.021Z,985.56
2023-05-14T10:05:12.973Z,985.58
2023-05-14T10:06:12.968Z,985.56
2023-05-14T10:07:12.921Z,985.55
2023-05-14T10:08:12.919Z,985.56
2023-05-14T10:09:12.921Z,985.54
2023-05-14T10:10:12.895Z,985.52
2023-05-14T10:11:12.905Z,985.51
2023-05-14T10:12:12.896Z,985.49
2023-05-14T10:13:13.832Z,985.50
2023-05-14T10:14:12.868Z,985.49
2023-05-14T10:15:12.849Z,985.49
2023-05-14T10:16:12.849Z,985.50
2023-05-14T10:17:12.923Z,985.51
2023-05-14T10:18:12.919Z,985.50
2023-05-14T10:19:12.856Z,985.48
2023-05-14T10:20:12.805Z,985.48
2023-05-14T10:21:12.783Z,985.47
2023-05-14T10:22:12.779Z,985.51
2023-05-14T10:23:12.767Z,985.49
2023-05-14T10:24:12.812Z,985.50
2023-05-14T10:25:12.737Z,985.52
2023-05-14T10:26:12.719Z,985.49
2023-05-14T10:27:12.729Z,985.48
2023-05-14T10:28:12.744Z,985.47
2023-05-14T10:29:12.699Z,985.46
2023-05-14T10:30:12.732Z,985.48
2023-05-14T10:31:12.739Z,985.45
2023-05-14T10:32:12.674Z,985.42
2023-05-14T10:33:12.707Z,985.43
2023-05-14T10:34:12.654Z,985.40
2023-05-14T10:35:12.677Z,985.43
2023-05-14T10:36:12.635Z,985.42
2023-05-14T10:37:12.615Z,985.42
2023-05-14T10:38:12.605Z,985.41
2023-05-14T10:39:12.588Z,985.38
2023-05-14T10:40:12.617Z,985.39
2023-05-14T10:41:12.568Z,985.41
2023-05-14T10:42:12.573Z,985.39
2023-05-14T10:43:12.546Z,985.35
2023-05-14T10:44:12.541Z,985.35
2023-05-14T10:45:12.584Z,985.33
2023-05-14T10:46:12.539Z,985.31
2023-05-14T10:47:12.538Z,985.31
2023-05-14T10:48:12.582Z,985.30
2023-05-14T10:49:12.512Z,985.31
2023-05-14T10:50:12.565Z,985.31
2023-05-14T10:51:12.542Z,985.28
2023-05-14T10:52:12.497Z,985.28
2023-05-14T10:53:12.451Z,985.28
2023-05-14T10:54:12.439Z,985.26
2023-05-14T10:55:12.445Z,985.28
2023-05-14T10:56:12.456Z,985.27
2023-05-14T10:57:12.403Z,985.26
2023-05-14T10:58:12.431Z,985.26
2023-05-14T10:59:12.383Z,985.25
2023-05-14T11:00:12.398Z,985.23
2023-05-14T11:01:12.387Z,985.20
2023-05-14T11:02:12.407Z,985.20
2023-05-14T11:03:12.511Z,985.17
2023-05-14T11:04:12.416Z,985.15
2023-05-14T11:05:12.341Z,985.15
2023-05-14T11:06:12.349Z,985.13
2023-05-14T11:07:12.368Z,985.08
2023-05-14T11:08:12.313Z,985.09
2023-05-14T11:09:12.313Z,985.09
2023-05-14T11:10:12.276Z,985.09
2023-05-14T11:11:12.286Z,985.09
2023-05-14T11:12:12.267Z,985.03
2023-05-14T11:13:12.266Z,985.07
2023-05-14T11:14:12.248Z,985.04
2023-05-14T11:15:12.272Z,985.01
2023-05-14T11:16:22.792Z,984.98
2023-05-14T11:17:12.426Z,984.97
2023-05-14T11:18:12.304Z,984.99
2023-05-14T11:19:12.238Z,984.96
2023-05-14T11:20:12.258Z,984.93
2023-05-14T11:21:12.173Z,984.92
2023-05-14T11:22:12.169Z,984.89
2023-05-14T11:23:12.151Z,984.87
2023-05-14T11:24:12.195Z,984.86
2023-05-14T11:25:12.138Z,984.87
2023-05-14T11:26:12.197Z,984.88
2023-05-14T11:27:12.131Z,984.88
2023-05-14T11:28:12.120Z,984.86
2023-05-14T11:29:12.082Z,984.86
2023-05-14T11:30:12.086Z,984.87
2023-05-14T11:31:12.132Z,984.85
2023-05-14T11:32:12.125Z,984.85
2023-05-14T11:33:12.165Z,984.86
2023-05-14T11:34:12.044Z,984.86
2023-05-14T11:35:12.039Z,984.83
2023-05-14T11:36:12.029Z,984.83
2023-05-14T11:37:12.043Z,984.83
2023-05-14T11:38:12.044Z,984.80
2023-05-14T11:39:11.995Z,984.80
2023-05-14T11:40:12.001Z,984.76
2023-05-14T11:41:11.977Z,984.75
2023-05-14T11:42:11.960Z,984.79
2023-05-14T11:43:11.981Z,984.76
2023-05-14T11:44:11.934Z,984.73
2023-05-14T11:45:11.982Z,984.75
2023-05-14T11:46:11.947Z,984.77
2023-05-14T11:47:11.914Z,984.77
2023-05-14T11:48:11.953Z,984.73
2023-05-14T11:49:12.107Z,984.71
2023-05-14T11:50:11.881Z,984.69
2023-05-14T11:51:11.880Z,984.68
2023-05-14T11:52:11.870Z,984.66
2023-05-14T11:53:11.867Z,984.65
2023-05-14T11:54:11.858Z,984.60
2023-05-14T11:55:11.843Z,984.58
2023-05-14T11:56:11.834Z,984.58
2023-05-14T11:57:11.788Z,984.56
2023-05-14T11:58:11.800Z,984.53
2023-05-14T11:59:11.769Z,984.53
2023-05-14T12:00:11.805Z,984.54
2023-05-14T12:01:11.772Z,984.54
2023-05-14T12:02:11.840Z,984.50
2023-05-14T12:03:11.844Z,984.52
2023-05-14T12:04:11.775Z,984.52
2023-05-14T12:05:11.755Z,984.53
2023-05-14T12:06:11.713Z,984.50
2023-05-14T12:07:11.684Z,984.48
2023-05-14T12:08:11.732Z,984.44
2023-05-14T12:09:11.671Z,984.45
2023-05-14T12:10:11.664Z,984.43
2023-05-14T12:11:11.663Z,984.39
2023-05-14T12:12:11.639Z,984.38
2023-05-14T12:13:11.636Z,984.41
2023-05-14T12:14:11.664Z,984.46
2023-05-14T12:15:11.637Z,984.45
2023-05-14T12:16:11.671Z,984.43
2023-05-14T12:17:11.590Z,984.37
2023-05-14T12:18:23.340Z,984.38
2023-05-14T12:19:11.649Z,984.39
2023-05-14T12:20:11.676Z,984.37
2023-05-14T12:21:11.559Z,984.36
2023-05-14T12:22:11.599Z,984.36
2023-05-14T12:23:11.559Z,984.32
2023-05-14T12:24:11.519Z,984.27
2023-05-14T12:25:11.533Z,984.27
2023-05-14T12:26:11.527Z,984.28
2023-05-14T12:27:11.475Z,984.26
2023-05-14T12:28:11.479Z,984.19